Time;durP1;ratioP1;P1;durP2;ratioP2;P2;SDS_P1;SDS_P2;PMS_P1;PMS_P2;Temp;Humidity;BMP_temperature;BMP_pressure;BME280_temperature;BME280_humidity;BME280_pressure;Samples;Min_cycle;Max_cycle;Signal;HPM_P1;HPM_P2
2023/07/22 00:01:22;;;;;;;20.52;13.18;;;17.30;73.30;;;;;;4995117;28;20121;-74
2023/07/22 00:03:47;;;;;;;20.80;12.68;;;17.30;73.20;;;;;;5010896;28;20034;-76
2023/07/22 00:06:13;;;;;;;18.58;12.45;;;17.30;73.20;;;;;;4992240;28;20034;-76
2023/07/22 00:08:40;;;;;;;17.08;12.65;;;17.30;73.20;;;;;;4988128;28;20113;-76
2023/07/22 00:11:05;;;;;;;18.77;12.90;;;17.30;73.30;;;;;;4989287;28;20049;-75
2023/07/22 00:13:32;;;;;;;19.17;13.02;;;17.30;73.10;;;;;;5004777;28;20030;-75
2023/07/22 00:16:03;;;;;;;18.58;11.63;;;17.30;73.30;;;;;;4995132;28;20042;-75
2023/07/22 00:18:30;;;;;;;19.63;12.90;;;17.30;73.30;;;;;;5014214;28;20470;-76
2023/07/22 00:20:57;;;;;;;21.55;12.52;;;17.20;73.70;;;;;;4993246;28;20067;-74
2023/07/22 00:23:23;;;;;;;19.60;12.80;;;17.20;73.80;;;;;;4999318;28;20101;-76
2023/07/22 00:25:49;;;;;;;16.45;11.98;;;17.20;73.60;;;;;;5014235;28;20038;-74
2023/07/22 00:28:15;;;;;;;20.40;12.63;;;17.20;73.80;;;;;;4994324;28;20030;-75
2023/07/22 00:30:41;;;;;;;18.88;12.02;;;17.20;73.90;;;;;;4991408;28;20133;-73
2023/07/22 00:33:08;;;;;;;20.42;12.75;;;17.10;73.90;;;;;;4998492;28;20042;-76
2023/07/22 00:35:34;;;;;;;17.25;12.88;;;17.10;74.10;;;;;;4994697;28;20023;-75
2023/07/22 00:38:01;;;;;;;17.65;13.02;;;17.10;74.40;;;;;;4987367;28;20026;-75
2023/07/22 00:40:30;;;;;;;18.05;12.13;;;17.10;74.50;;;;;;4990465;28;20454;-75
2023/07/22 00:42:56;;;;;;;19.20;12.90;;;17.10;74.50;;;;;;4990787;28;20022;-75
2023/07/22 00:45:22;;;;;;;20.45;13.30;;;17.10;74.60;;;;;;4987356;28;20033;-74
2023/07/22 00:47:48;;;;;;;23.23;12.07;;;17.10;74.70;;;;;;4990142;28;20033;-75
2023/07/22 00:50:14;;;;;;;20.20;12.98;;;17.10;74.70;;;;;;4989158;28;20048;-77
2023/07/22 00:52:40;;;;;;;20.85;13.25;;;17.10;74.80;;;;;;4987156;28;20112;-76
2023/07/22 00:55:06;;;;;;;21.02;13.65;;;17.10;74.60;;;;;;4996321;28;20057;-75
2023/07/22 00:57:33;;;;;;;22.23;13.48;;;17.10;74.70;;;;;;4992031;28;20097;-75
2023/07/22 00:59:59;;;;;;;19.33;12.50;;;17.00;74.80;;;;;;4994215;28;20137;-74
2023/07/22 01:02:25;;;;;;;20.13;13.27;;;17.00;75.10;;;;;;5006136;28;20073;-74
2023/07/22 01:04:52;;;;;;;21.15;13.93;;;17.00;75.10;;;;;;4985774;28;20061;-75
2023/07/22 01:07:18;;;;;;;22.50;13.48;;;17.00;75.20;;;;;;4990447;28;20023;-75
2023/07/22 01:09:44;;;;;;;18.52;13.02;;;17.00;75.30;;;;;;4992815;28;20030;-74
2023/07/22 01:12:11;;;;;;;20.70;13.55;;;17.10;75.10;;;;;;4987585;28;20047;-74
2023/07/22 01:14:39;;;;;;;17.50;12.27;;;17.10;75.20;;;;;;4988436;28;20035;-75
2023/07/22 01:17:06;;;;;;;21.02;13.50;;;17.10;75.30;;;;;;4985218;28;20390;-74
2023/07/22 01:19:33;;;;;;;21.02;13.18;;;17.10;75.30;;;;;;5002468;28;20021;-75
2023/07/22 01:22:01;;;;;;;22.15;14.07;;;17.10;75.50;;;;;;4992003;28;20184;-75
2023/07/22 01:24:28;;;;;;;22.70;13.48;;;17.10;75.30;;;;;;4989484;28;20057;-75
2023/07/22 01:26:53;;;;;;;20.90;13.57;;;17.00;75.80;;;;;;4985442;28;20031;-76
2023/07/22 01:29:21;;;;;;;19.40;12.65;;;17.10;75.70;;;;;;4987067;28;20030;-76
2023/07/22 01:31:49;;;;;;;20.92;14.63;;;17.00;75.90;;;;;;4984204;28;20161;-76
2023/07/22 01:34:15;;;;;;;19.92;13.55;;;17.00;76.10;;;;;;4996241;28;20122;-75
2023/07/22 01:36:40;;;;;;;29.67;14.48;;;17.00;76.20;;;;;;4997810;28;20347;-78
2023/07/22 01:39:06;;;;;;;20.58;13.38;;;17.00;76.10;;;;;;4987914;28;20032;-76
2023/07/22 01:41:32;;;;;;;22.52;14.45;;;16.90;76.40;;;;;;4989472;28;20141;-75
2023/07/22 01:43:59;;;;;;;19.52;12.93;;;16.90;76.50;;;;;;4994520;28;20033;-75
2023/07/22 01:46:25;;;;;;;22.17;13.48;;;16.80;76.80;;;;;;4996879;28;20030;-75
2023/07/22 01:48:51;;;;;;;21.35;13.48;;;16.80;77.10;;;;;;4990580;28;20063;-76
2023/07/22 01:51:17;;;;;;;23.17;13.70;;;16.80;77.10;;;;;;5001897;28;20039;-76
2023/07/22 01:53:42;;;;;;;24.08;13.13;;;16.80;77.30;;;;;;5000587;28;20539;-76
2023/07/22 01:56:08;;;;;;;20.42;12.77;;;16.80;77.30;;;;;;4993081;28;20062;-75
2023/07/22 01:58:34;;;;;;;22.88;13.00;;;16.80;77.50;;;;;;4994338;28;20078;-75
2023/07/22 02:01:00;;;;;;;18.63;12.30;;;16.80;77.50;;;;;;4991348;28;20088;-76
2023/07/22 02:03:25;;;;;;;20.63;12.07;;;16.70;77.80;;;;;;4999949;28;20296;-76
2023/07/22 02:05:51;;;;;;;21.33;13.05;;;16.60;78.00;;;;;;4992984;28;20046;-76
2023/07/22 02:08:17;;;;;;;19.70;13.05;;;16.60;78.10;;;;;;4988676;28;20026;-76
2023/07/22 02:10:43;;;;;;;27.23;14.80;;;16.60;78.30;;;;;;4984731;28;20391;-75
2023/07/22 02:13:09;;;;;;;19.13;12.35;;;16.50;78.80;;;;;;4987876;28;20026;-76
2023/07/22 02:15:35;;;;;;;19.75;11.80;;;16.50;78.90;;;;;;4990432;28;20037;-75
2023/07/22 02:18:01;;;;;;;19.60;12.10;;;16.50;79.20;;;;;;4992193;28;20022;-76
2023/07/22 02:20:28;;;;;;;19.63;12.13;;;16.50;79.10;;;;;;4989958;28;20030;-76
2023/07/22 02:22:54;;;;;;;20.23;12.52;;;16.60;79.10;;;;;;4993953;28;20030;-74
2023/07/22 02:25:20;;;;;;;17.83;11.45;;;16.50;79.10;;;;;;4988697;28;20126;-76
2023/07/22 02:27:46;;;;;;;19.17;11.55;;;16.50;79.20;;;;;;4987332;28;20560;-75
2023/07/22 02:30:12;;;;;;;19.42;11.40;;;16.50;79.10;;;;;;4985980;28;20093;-77
2023/07/22 02:32:39;;;;;;;20.30;11.43;;;16.60;79.20;;;;;;4989679;28;20038;-76
2023/07/22 02:35:09;;;;;;;19.40;12.05;;;16.60;79.50;;;;;;5006145;28;20045;-75
2023/07/22 02:37:38;;;;;;;18.48;10.82;;;16.60;79.30;;;;;;5004549;28;20348;-75
2023/07/22 02:40:13;;;;;;;25.33;12.55;;;16.50;79.40;;;;;;4985546;28;20053;-75
2023/07/22 02:42:39;;;;;;;19.35;11.30;;;16.50;79.60;;;;;;4992141;28;20123;-75
2023/07/22 02:45:07;;;;;;;19.17;12.50;;;16.50;79.70;;;;;;4989916;28;20038;-74
2023/07/22 02:47:36;;;;;;;22.58;12.20;;;16.50;79.80;;;;;;4998801;28;20122;-74
2023/07/22 02:50:04;;;;;;;18.42;12.52;;;16.40;79.80;;;;;;5003960;28;20535;-75
2023/07/22 02:52:30;;;;;;;19.63;11.48;;;16.40;79.80;;;;;;4999772;28;20114;-73
2023/07/22 02:55:16;;;;;;;22.63;12.85;;;16.30;80.00;;;;;;4994806;28;20114;-74
2023/07/22 02:57:42;;;;;;;18.58;11.45;;;16.30;79.90;;;;;;4997727;28;20030;-76
2023/07/22 03:00:08;;;;;;;18.63;11.23;;;16.30;80.20;;;;;;4997633;28;20768;-73
2023/07/22 03:02:37;;;;;;;19.52;11.98;;;16.30;80.30;;;;;;5018082;28;20369;-75
2023/07/22 03:05:07;;;;;;;21.75;12.43;;;16.20;80.40;;;;;;5002472;28;20022;-74
2023/07/22 03:07:37;;;;;;;22.67;11.25;;;16.20;80.80;;;;;;4994243;28;20141;-75
2023/07/22 03:10:05;;;;;;;22.05;11.88;;;16.10;80.80;;;;;;4988819;28;20109;-74
2023/07/22 03:12:31;;;;;;;23.00;12.98;;;16.10;81.00;;;;;;4997879;28;20219;-76
2023/07/22 03:14:56;;;;;;;20.13;11.60;;;16.10;81.30;;;;;;4996174;28;20022;-75
2023/07/22 03:17:22;;;;;;;18.48;11.18;;;16.00;81.50;;;;;;4993121;28;20246;-75
2023/07/22 03:19:48;;;;;;;18.77;11.45;;;16.00;81.60;;;;;;5013379;28;20034;-73
2023/07/22 03:22:16;;;;;;;19.20;11.23;;;15.90;81.70;;;;;;4991774;28;20030;-76
2023/07/22 03:24:42;;;;;;;19.90;11.95;;;16.00;81.70;;;;;;4993991;28;20422;-74
2023/07/22 03:27:08;;;;;;;22.50;11.77;;;15.90;81.80;;;;;;5001134;28;20066;-76
2023/07/22 03:29:33;;;;;;;19.73;12.52;;;15.90;81.90;;;;;;4998613;28;20124;-77
2023/07/22 03:31:59;;;;;;;21.38;11.20;;;15.80;81.90;;;;;;4994020;28;20049;-75
2023/07/22 03:34:29;;;;;;;20.60;11.15;;;15.80;82.10;;;;;;5001269;28;20026;-74
2023/07/22 03:36:55;;;;;;;18.13;11.68;;;15.80;82.20;;;;;;4993734;28;20050;-75
2023/07/22 03:39:22;;;;;;;17.52;11.32;;;15.80;82.30;;;;;;4996689;28;20027;-75
2023/07/22 03:41:48;;;;;;;18.30;11.30;;;15.80;82.40;;;;;;4994306;28;20045;-76
2023/07/22 03:44:14;;;;;;;16.77;10.20;;;15.70;82.60;;;;;;5000511;28;20032;-74
2023/07/22 03:46:40;;;;;;;17.38;10.90;;;15.70;82.50;;;;;;4990758;28;20030;-75
2023/07/22 03:49:06;;;;;;;21.17;11.77;;;15.70;82.60;;;;;;5000204;28;20018;-74
2023/07/22 03:51:32;;;;;;;17.95;10.25;;;15.70;82.60;;;;;;5001116;28;20073;-74
2023/07/22 03:53:58;;;;;;;18.95;11.45;;;15.70;82.70;;;;;;4990053;28;20036;-76
2023/07/22 03:56:24;;;;;;;18.42;10.80;;;15.70;82.80;;;;;;5000165;28;20042;-74
2023/07/22 03:58:51;;;;;;;19.27;11.23;;;15.60;82.90;;;;;;4993919;28;20050;-75
2023/07/22 04:01:17;;;;;;;20.90;10.88;;;15.60;83.00;;;;;;4998284;28;20041;-72
2023/07/22 04:03:43;;;;;;;20.67;11.88;;;15.60;83.00;;;;;;4997234;28;20022;-74
2023/07/22 04:06:08;;;;;;;22.67;12.13;;;15.70;82.90;;;;;;4994212;28;20057;-75
2023/07/22 04:08:34;;;;;;;18.35;11.00;;;15.70;82.90;;;;;;4988001;28;20036;-75
2023/07/22 04:11:00;;;;;;;20.27;12.25;;;15.60;83.00;;;;;;4993720;28;20045;-73
2023/07/22 04:13:26;;;;;;;17.77;11.90;;;15.60;83.00;;;;;;5002625;28;20026;-74
2023/07/22 04:15:52;;;;;;;19.00;11.23;;;15.60;83.00;;;;;;4990811;28;20041;-75
2023/07/22 04:18:20;;;;;;;20.80;12.70;;;15.60;83.00;;;;;;4989659;28;20034;-76
2023/07/22 04:20:46;;;;;;;20.63;12.18;;;15.60;83.00;;;;;;4996555;28;20049;-76
2023/07/22 04:23:12;;;;;;;17.58;11.85;;;15.60;83.20;;;;;;4993310;28;20307;-76
2023/07/22 04:25:45;;;;;;;22.02;12.13;;;15.60;83.10;;;;;;4997484;28;20030;-76
2023/07/22 04:28:10;;;;;;;20.92;12.43;;;15.70;83.00;;;;;;4992215;28;20031;-75
2023/07/22 04:30:37;;;;;;;22.30;12.23;;;15.60;82.90;;;;;;4993371;28;20772;-78
2023/07/22 04:33:05;;;;;;;20.30;12.20;;;15.70;82.90;;;;;;4987493;28;20023;-77
2023/07/22 04:35:34;;;;;;;21.45;12.57;;;15.70;82.90;;;;;;4992030;28;20034;-75
2023/07/22 04:37:59;;;;;;;21.42;12.95;;;15.60;82.70;;;;;;4993768;28;20018;-77
2023/07/22 04:40:25;;;;;;;23.05;13.40;;;15.60;82.70;;;;;;4987323;28;20528;-75
2023/07/22 04:42:51;;;;;;;19.08;11.88;;;15.70;82.70;;;;;;4994461;28;20030;-74
2023/07/22 04:45:20;;;;;;;20.90;12.55;;;15.70;82.60;;;;;;4990465;28;20042;-74
2023/07/22 04:47:48;;;;;;;21.45;13.90;;;15.70;82.60;;;;;;4987609;28;20031;-75
2023/07/22 04:50:14;;;;;;;22.60;13.50;;;15.70;82.30;;;;;;4992098;28;20034;-75
2023/07/22 04:52:46;;;;;;;20.33;13.43;;;15.70;82.30;;;;;;4991064;28;20093;-75
2023/07/22 04:55:11;;;;;;;22.08;13.55;;;15.70;82.50;;;;;;4999779;28;20040;-74
2023/07/22 04:57:41;;;;;;;24.33;13.80;;;15.70;82.40;;;;;;4988773;28;20027;-73
2023/07/22 05:00:09;;;;;;;22.73;12.93;;;15.80;82.20;;;;;;4989056;28;20030;-75
2023/07/22 05:02:35;;;;;;;19.25;12.48;;;15.90;82.10;;;;;;5008213;28;20022;-77
2023/07/22 05:05:01;;;;;;;18.83;13.13;;;15.90;82.00;;;;;;4995540;28;20084;-74
2023/07/22 05:07:26;;;;;;;21.65;13.15;;;16.00;81.30;;;;;;4999597;28;20022;-75
2023/07/22 05:09:53;;;;;;;22.13;13.45;;;16.00;81.20;;;;;;5000172;28;20030;-74
2023/07/22 05:12:18;;;;;;;18.35;12.38;;;16.00;81.50;;;;;;4992247;28;20058;-75
2023/07/22 05:14:48;;;;;;;22.33;12.90;;;16.10;81.00;;;;;;4984825;28;20483;-77
2023/07/22 05:17:13;;;;;;;16.85;12.07;;;16.20;81.10;;;;;;4989916;28;20110;-76
2023/07/22 05:19:39;;;;;;;19.02;12.48;;;16.20;80.60;;;;;;4997102;28;20104;-74
2023/07/22 05:22:05;;;;;;;20.92;11.80;;;16.20;80.80;;;;;;4990018;28;20042;-74
2023/07/22 05:24:30;;;;;;;22.42;12.43;;;16.30;80.30;;;;;;4998072;28;20084;-74
2023/07/22 05:26:56;;;;;;;18.67;11.70;;;16.40;80.10;;;;;;5007445;28;20033;-75
2023/07/22 05:29:22;;;;;;;18.33;11.63;;;16.70;80.10;;;;;;5007863;28;20026;-75
2023/07/22 05:31:48;;;;;;;21.25;10.98;;;17.30;78.00;;;;;;4990631;28;20582;-75
2023/07/22 05:34:13;;;;;;;23.95;11.23;;;17.60;75.70;;;;;;5003288;28;20037;-75
2023/07/22 05:36:39;;;;;;;16.63;10.65;;;17.80;75.10;;;;;;4999242;28;20034;-76
2023/07/22 05:39:05;;;;;;;20.35;10.20;;;18.30;73.10;;;;;;4997867;28;20045;-78
2023/07/22 05:41:33;;;;;;;16.83;9.45;;;18.80;71.70;;;;;;4989173;28;20054;-77
2023/07/22 05:43:59;;;;;;;17.60;10.50;;;18.60;71.40;;;;;;4984997;28;20117;-75
2023/07/22 05:46:25;;;;;;;17.25;10.32;;;18.40;72.30;;;;;;4985689;28;20149;-74
2023/07/22 05:48:50;;;;;;;18.35;10.60;;;18.10;73.30;;;;;;4985681;28;20387;-75
2023/07/22 05:51:17;;;;;;;16.42;9.52;;;17.80;73.90;;;;;;4983317;28;20410;-74
2023/07/22 05:53:43;;;;;;;17.77;10.52;;;17.50;75.20;;;;;;4984958;28;20465;-73
2023/07/22 05:56:08;;;;;;;19.52;9.85;;;17.40;75.50;;;;;;4983775;28;20121;-77
2023/07/22 05:58:34;;;;;;;18.27;10.55;;;17.50;75.40;;;;;;4984270;28;20029;-76
2023/07/22 06:01:00;;;;;;;18.02;10.55;;;17.50;75.50;;;;;;4981493;28;20065;-75
2023/07/22 06:03:26;;;;;;;16.33;10.55;;;17.70;75.10;;;;;;4984923;28;20562;-74
2023/07/22 06:05:51;;;;;;;17.90;9.95;;;17.70;74.80;;;;;;4980514;28;20054;-75
2023/07/22 06:08:17;;;;;;;18.17;10.48;;;17.60;75.40;;;;;;4983253;28;20064;-74
2023/07/22 06:10:43;;;;;;;18.30;10.30;;;17.60;75.50;;;;;;4987532;28;20129;-75
2023/07/22 06:13:09;;;;;;;19.30;10.55;;;17.60;75.50;;;;;;4990640;28;20066;-76
2023/07/22 06:15:35;;;;;;;15.68;9.63;;;17.80;75.40;;;;;;4997537;28;20073;-76
2023/07/22 06:18:01;;;;;;;17.27;10.10;;;17.80;75.10;;;;;;5013681;28;20029;-75
2023/07/22 06:20:27;;;;;;;19.15;10.20;;;18.00;74.90;;;;;;4994479;28;20113;-75
2023/07/22 06:22:52;;;;;;;14.95;9.60;;;18.00;74.40;;;;;;4998093;28;20052;-75
2023/07/22 06:25:18;;;;;;;16.70;9.75;;;18.00;75.20;;;;;;4998567;28;20034;-75
2023/07/22 06:27:44;;;;;;;19.25;9.50;;;18.00;74.70;;;;;;4994953;28;20041;-75
2023/07/22 06:30:10;;;;;;;15.57;9.48;;;18.10;75.00;;;;;;4991492;28;20425;-75
2023/07/22 06:32:38;;;;;;;18.08;9.55;;;17.90;74.90;;;;;;4994043;28;20026;-74
2023/07/22 06:35:04;;;;;;;16.00;8.75;;;17.90;75.60;;;;;;4996595;28;20026;-75
2023/07/22 06:37:30;;;;;;;17.13;9.10;;;17.90;75.50;;;;;;4993256;28;20057;-77
2023/07/22 06:39:55;;;;;;;17.50;9.15;;;17.90;75.60;;;;;;4993418;28;20034;-76
2023/07/22 06:42:21;;;;;;;16.17;9.70;;;17.70;75.40;;;;;;4998241;28;20038;-77
2023/07/22 06:44:47;;;;;;;17.75;9.88;;;17.60;76.20;;;;;;5013446;28;20053;-74
2023/07/22 06:47:13;;;;;;;17.05;9.75;;;17.50;75.90;;;;;;5013566;28;20664;-76
2023/07/22 06:49:40;;;;;;;19.70;9.48;;;17.50;76.10;;;;;;4993568;28;20030;-76
2023/07/22 06:52:07;;;;;;;18.95;10.45;;;17.40;76.30;;;;;;5008051;28;20053;-75
2023/07/22 06:54:34;;;;;;;17.85;9.75;;;17.40;78.00;;;;;;5000505;28;20018;-76
2023/07/22 06:56:59;;;;;;;18.90;10.50;;;17.30;79.00;;;;;;5004558;28;20042;-75
2023/07/22 06:59:26;;;;;;;18.50;9.77;;;17.20;79.80;;;;;;5000989;28;20040;-75
2023/07/22 07:01:52;;;;;;;18.00;10.55;;;17.30;79.90;;;;;;5009025;28;20042;-75
2023/07/22 07:04:17;;;;;;;16.02;10.25;;;17.20;80.50;;;;;;4996811;28;20597;-76
2023/07/22 07:06:43;;;;;;;17.65;9.90;;;17.30;79.90;;;;;;4995511;28;20050;-75
2023/07/22 07:09:09;;;;;;;18.83;11.18;;;17.50;80.60;;;;;;4999384;28;20033;-75
2023/07/22 07:11:35;;;;;;;19.05;10.27;;;17.60;81.00;;;;;;5007485;28;20588;-75
2023/07/22 07:14:00;;;;;;;16.92;9.73;;;17.60;80.60;;;;;;4990612;28;20518;-74
2023/07/22 07:16:33;;;;;;;16.40;9.90;;;17.70;79.90;;;;;;4993486;28;20506;-77
2023/07/22 07:19:01;;;;;;;18.52;10.00;;;18.00;80.20;;;;;;5014645;28;20172;-75
2023/07/22 07:21:27;;;;;;;19.88;10.18;;;18.00;79.80;;;;;;4991135;28;20034;-75
2023/07/22 07:23:53;;;;;;;17.40;9.00;;;18.10;79.10;;;;;;4996945;28;20018;-76
2023/07/22 07:26:20;;;;;;;18.10;8.45;;;18.10;79.30;;;;;;4991787;28;20045;-77
2023/07/22 07:28:47;;;;;;;16.88;9.40;;;18.10;78.60;;;;;;4998180;28;20034;-77
2023/07/22 07:31:13;;;;;;;18.65;9.35;;;18.10;78.60;;;;;;4989556;28;20513;-75
2023/07/22 07:33:39;;;;;;;15.05;8.77;;;18.30;77.90;;;;;;4991948;28;20030;-76
2023/07/22 07:36:05;;;;;;;15.48;8.43;;;18.50;78.30;;;;;;4988242;28;20046;-74
2023/07/22 07:38:31;;;;;;;17.48;8.93;;;18.60;76.60;;;;;;4995720;28;20030;-74
2023/07/22 07:41:11;;;;;;;14.73;9.00;;;18.70;76.20;;;;;;4993586;28;20049;-74
2023/07/22 07:43:37;;;;;;;14.93;8.63;;;18.90;76.20;;;;;;5000424;28;20040;-74
2023/07/22 07:46:21;;;;;;;14.25;8.50;;;19.00;76.20;;;;;;5009624;28;20033;-74
2023/07/22 07:48:48;;;;;;;14.73;7.35;;;19.30;74.70;;;;;;4987227;28;20038;-75
2023/07/22 07:51:15;;;;;;;16.08;7.57;;;19.30;73.70;;;;;;4995330;28;20065;-76
2023/07/22 07:53:42;;;;;;;12.57;7.75;;;19.60;74.60;;;;;;4999094;28;20477;-74
2023/07/22 07:56:08;;;;;;;14.43;7.28;;;19.90;73.50;;;;;;4997531;28;20026;-75
2023/07/22 07:58:34;;;;;;;15.00;6.85;;;20.20;70.80;;;;;;4995947;28;20025;-77
2023/07/22 08:01:00;;;;;;;13.40;7.18;;;20.50;71.70;;;;;;4987787;28;20038;-74
2023/07/22 08:03:26;;;;;;;12.65;6.45;;;20.60;70.00;;;;;;4993189;28;21307;-77
2023/07/22 08:05:51;;;;;;;12.88;4.90;;;21.00;69.10;;;;;;4988058;28;20046;-75
2023/07/22 08:08:17;;;;;;;10.10;4.05;;;21.00;67.60;;;;;;4991855;28;20030;-75
2023/07/22 08:10:44;;;;;;;10.75;4.47;;;20.90;66.50;;;;;;4989916;28;20054;-75
2023/07/22 08:13:10;;;;;;;10.30;3.80;;;20.80;67.10;;;;;;4978182;28;20027;-76
2023/07/22 08:15:36;;;;;;;14.52;4.03;;;20.90;67.90;;;;;;4990244;28;20519;-75
2023/07/22 08:18:01;;;;;;;10.02;4.10;;;20.50;67.80;;;;;;5005852;28;20126;-76
2023/07/22 08:20:27;;;;;;;8.90;3.83;;;20.60;68.20;;;;;;4992178;28;20053;-76
2023/07/22 08:22:53;;;;;;;8.68;3.83;;;20.60;66.80;;;;;;4993533;28;20046;-75
2023/07/22 08:25:18;;;;;;;10.20;3.58;;;20.60;67.80;;;;;;5000885;28;20217;-76
2023/07/22 08:27:45;;;;;;;10.23;3.95;;;20.90;67.20;;;;;;4993126;28;20081;-75
2023/07/22 08:30:11;;;;;;;11.45;3.70;;;21.20;66.10;;;;;;4995304;28;20026;-75
2023/07/22 08:32:36;;;;;;;9.18;3.65;;;21.10;65.20;;;;;;5011447;28;20033;-75
2023/07/22 08:35:03;;;;;;;8.30;3.35;;;21.10;65.60;;;;;;5012571;28;20031;-77
2023/07/22 08:37:28;;;;;;;8.90;3.28;;;21.20;65.40;;;;;;4996777;28;20022;-75
2023/07/22 08:39:54;;;;;;;8.27;3.35;;;21.60;63.60;;;;;;4984423;28;20077;-76
2023/07/22 08:42:21;;;;;;;8.85;3.30;;;21.90;62.30;;;;;;4999463;28;20042;-77
2023/07/22 08:44:48;;;;;;;9.50;3.28;;;22.10;63.40;;;;;;4993008;28;20109;-75
2023/07/22 08:47:16;;;;;;;7.47;3.15;;;22.10;61.40;;;;;;4994967;28;20072;-76
2023/07/22 08:49:50;;;;;;;7.32;3.00;;;22.20;62.20;;;;;;5006850;28;20034;-74
2023/07/22 08:52:17;;;;;;;7.25;2.90;;;22.60;60.20;;;;;;4990969;28;20069;-76
2023/07/22 08:54:44;;;;;;;7.97;2.90;;;22.50;60.60;;;;;;4995018;28;20514;-74
2023/07/22 08:57:11;;;;;;;7.88;3.08;;;22.40;60.00;;;;;;5007668;28;20453;-76
2023/07/22 08:59:47;;;;;;;8.65;3.00;;;22.20;60.10;;;;;;4991947;28;20022;-75
2023/07/22 09:02:13;;;;;;;6.40;2.60;;;22.40;59.80;;;;;;4986441;28;20045;-75
2023/07/22 09:04:41;;;;;;;7.55;2.75;;;22.40;58.90;;;;;;4993204;28;20026;-73
2023/07/22 09:07:08;;;;;;;10.18;2.80;;;22.10;58.50;;;;;;4992947;28;20034;-73
2023/07/22 09:09:35;;;;;;;6.15;2.50;;;21.90;58.70;;;;;;4993753;28;20379;-74
2023/07/22 09:12:02;;;;;;;6.00;2.63;;;21.90;59.20;;;;;;4992619;28;20046;-76
2023/07/22 09:14:30;;;;;;;5.68;2.17;;;22.10;58.30;;;;;;4994414;28;20030;-75
2023/07/22 09:16:55;;;;;;;5.47;2.58;;;22.40;56.40;;;;;;5003420;28;20041;-74
2023/07/22 09:19:21;;;;;;;5.85;2.38;;;22.50;55.10;;;;;;4995089;28;20022;-75
2023/07/22 09:21:47;;;;;;;7.30;2.40;;;22.50;55.30;;;;;;5007316;28;20578;-75
2023/07/22 09:24:24;;;;;;;6.07;2.08;;;22.10;54.80;;;;;;5005614;28;20732;-76
2023/07/22 09:26:50;;;;;;;7.65;2.08;;;21.80;54.00;;;;;;4993639;28;20053;-74
2023/07/22 09:29:16;;;;;;;4.90;1.83;;;21.80;54.30;;;;;;4990295;28;20050;-74
2023/07/22 09:31:52;;;;;;;7.03;2.15;;;22.00;53.70;;;;;;5001600;28;20069;-73
2023/07/22 09:34:19;;;;;;;5.80;1.90;;;22.30;53.60;;;;;;4990734;28;20026;-74
2023/07/22 09:36:54;;;;;;;6.07;2.03;;;22.60;53.00;;;;;;4995894;28;20777;-74
2023/07/22 09:39:21;;;;;;;7.03;1.80;;;23.10;51.10;;;;;;4990016;28;20022;-74
2023/07/22 09:41:47;;;;;;;6.25;2.10;;;23.20;51.00;;;;;;4985898;28;20064;-74
2023/07/22 09:44:13;;;;;;;4.85;1.70;;;23.50;49.80;;;;;;4995566;28;20356;-74
2023/07/22 09:46:39;;;;;;;4.07;1.77;;;23.60;47.80;;;;;;4991774;28;20485;-73
2023/07/22 09:49:06;;;;;;;4.50;1.95;;;23.60;47.90;;;;;;4996567;28;20030;-74
2023/07/22 09:51:37;;;;;;;5.15;2.05;;;23.70;47.20;;;;;;4995410;28;20832;-76
2023/07/22 09:54:10;;;;;;;7.10;2.00;;;23.80;47.60;;;;;;5001812;28;20105;-75
2023/07/22 09:56:51;;;;;;;4.80;1.77;;;23.80;47.90;;;;;;4991610;28;20065;-74
2023/07/22 09:59:22;;;;;;;4.47;2.03;;;23.70;46.60;;;;;;4990947;28;20035;-75
2023/07/22 10:02:05;;;;;;;;;;;;;;;;;;;;;
2023/07/22 10:04:34;;;;;;;6.55;2.30;;;23.60;46.60;;;;;;4993298;28;20482;-74
2023/07/22 10:07:55;;;;;;;3.90;1.92;;;23.60;47.80;;;;;;4998785;28;20030;-76
2023/07/22 10:10:02;;;;;;;4.20;1.73;;;23.90;47.50;;;;;;4991164;28;20037;-74
2023/07/22 10:12:28;;;;;;;5.65;2.35;;;24.10;46.90;;;;;;4996065;28;20143;-73
2023/07/22 10:14:54;;;;;;;4.45;1.95;;;24.30;46.50;;;;;;4999299;28;20167;-75
2023/07/22 10:17:21;;;;;;;5.00;1.90;;;24.40;45.90;;;;;;4999300;28;20497;-73
2023/07/22 10:19:47;;;;;;;4.72;2.05;;;24.60;45.50;;;;;;4992980;28;20034;-76
2023/07/22 10:22:13;;;;;;;6.65;2.35;;;24.60;45.60;;;;;;4996166;28;20245;-73
2023/07/22 10:24:41;;;;;;;6.63;1.90;;;24.80;45.20;;;;;;4993289;28;20039;-73
2023/07/22 10:27:07;;;;;;;5.88;2.13;;;25.00;43.90;;;;;;4990006;28;20177;-74
2023/07/22 10:29:34;;;;;;;5.07;1.95;;;24.90;44.50;;;;;;5005871;28;20113;-74
2023/07/22 10:32:00;;;;;;;3.70;1.95;;;25.10;44.70;;;;;;4995804;28;20486;-74
2023/07/22 10:34:25;;;;;;;5.70;2.10;;;25.00;43.00;;;;;;4990627;28;20033;-73
2023/07/22 10:36:51;;;;;;;4.07;1.92;;;24.80;44.90;;;;;;4998370;28;20034;-74
2023/07/22 10:39:27;;;;;;;5.75;2.15;;;25.00;44.00;;;;;;4991241;28;20032;-75
2023/07/22 10:42:04;;;;;;;3.90;1.70;;;25.10;44.50;;;;;;4989435;28;20046;-74
2023/07/22 10:44:37;;;;;;;5.90;2.20;;;24.90;44.80;;;;;;4992477;28;20030;-74
2023/07/22 10:47:04;;;;;;;6.13;2.33;;;25.30;44.60;;;;;;5003584;28;20038;-74
2023/07/22 10:49:44;;;;;;;3.42;1.77;;;25.40;43.70;;;;;;4999946;28;20329;-74
2023/07/22 10:52:13;;;;;;;6.53;2.30;;;25.80;43.30;;;;;;4998131;28;20117;-76
2023/07/22 10:54:38;;;;;;;5.07;2.10;;;25.70;43.10;;;;;;5004798;28;20013;-76
2023/07/22 10:57:25;;;;;;;6.57;2.30;;;25.70;43.60;;;;;;5000815;28;20030;-74
2023/07/22 10:59:52;;;;;;;8.75;2.78;;;25.90;42.80;;;;;;5002178;28;20080;-74
2023/07/22 11:02:29;;;;;;;4.82;1.95;;;25.40;43.90;;;;;;4993399;28;20121;-74
2023/07/22 11:05:01;;;;;;;6.45;2.15;;;25.40;43.70;;;;;;4982557;28;20534;-75
2023/07/22 11:07:42;;;;;;;7.28;2.38;;;25.50;43.60;;;;;;4991679;28;20145;-75
2023/07/22 11:10:16;;;;;;;4.95;2.08;;;25.20;43.40;;;;;;4990088;28;20495;-75
2023/07/22 11:12:42;;;;;;;;;;;24.80;45.00;;;;;;4988280;28;20034;-73
2023/07/22 11:15:09;;;;;;;6.50;2.63;;;24.60;44.30;;;;;;4990845;28;20521;-73
2023/07/22 11:17:34;;;;;;;4.93;2.38;;;24.10;45.30;;;;;;5017688;28;20457;-73
2023/07/22 11:20:02;;;;;;;4.78;2.10;;;23.60;47.30;;;;;;4997730;28;20041;-73
2023/07/22 11:22:30;;;;;;;6.53;2.28;;;23.20;48.50;;;;;;4999951;28;20030;-73
2023/07/22 11:25:00;;;;;;;6.47;2.70;;;22.80;49.90;;;;;;4993630;28;20030;-74
2023/07/22 11:27:26;;;;;;;7.32;2.53;;;22.40;51.30;;;;;;4993995;28;20058;-74
2023/07/22 11:29:51;;;;;;;8.10;2.50;;;22.10;52.80;;;;;;4995329;28;20419;-74
2023/07/22 11:32:22;;;;;;;10.30;2.83;;;21.30;57.30;;;;;;4989649;28;20086;-74
2023/07/22 11:34:48;;;;;;;6.20;2.63;;;20.90;59.10;;;;;;5006220;28;20019;-74
2023/07/22 11:37:14;;;;;;;13.60;3.63;;;20.80;60.10;;;;;;4992876;28;20042;-73
2023/07/22 11:39:42;;;;;;;7.95;2.53;;;20.80;59.80;;;;;;5005233;28;20053;-74
2023/07/22 11:42:08;;;;;;;6.07;2.25;;;20.60;59.00;;;;;;4987331;28;20046;-75
2023/07/22 11:44:34;;;;;;;9.48;2.65;;;20.70;59.00;;;;;;4996145;28;20018;-75
2023/07/22 11:47:07;;;;;;;5.43;2.20;;;20.60;59.30;;;;;;5009061;28;20128;-76
2023/07/22 11:49:34;;;;;;;6.28;2.17;;;20.60;58.90;;;;;;4980121;28;20105;-74
2023/07/22 11:52:02;;;;;;;7.38;2.60;;;20.50;57.10;;;;;;4996212;28;20045;-74
2023/07/22 11:54:29;;;;;;;6.18;2.58;;;20.40;56.40;;;;;;4996008;28;20010;-74
2023/07/22 11:56:55;;;;;;;4.63;2.10;;;20.40;56.20;;;;;;4995986;28;20474;-75
2023/07/22 11:59:36;;;;;;;5.65;2.10;;;20.60;55.80;;;;;;4991451;28;20181;-73
2023/07/22 12:02:04;;;;;;;5.30;2.28;;;21.00;55.70;;;;;;4986545;28;20030;-74
2023/07/22 12:04:30;;;;;;;4.32;2.00;;;21.20;54.50;;;;;;5004678;28;20649;-74
2023/07/22 12:06:56;;;;;;;6.18;2.15;;;21.20;54.60;;;;;;5007149;28;20474;-74
2023/07/22 12:09:22;;;;;;;6.15;2.30;;;21.30;55.30;;;;;;4991192;28;20129;-75
2023/07/22 12:11:56;;;;;;;5.30;2.33;;;21.40;54.90;;;;;;4992527;28;20103;-74
2023/07/22 12:14:22;;;;;;;5.57;2.40;;;21.70;54.20;;;;;;4976792;28;20460;-74
2023/07/22 12:16:52;;;;;;;6.38;2.75;;;22.00;54.40;;;;;;4998049;28;20068;-74
2023/07/22 12:19:18;;;;;;;6.63;2.60;;;21.70;54.40;;;;;;4991831;28;20403;-75
2023/07/22 12:21:43;;;;;;;6.00;2.47;;;21.80;54.60;;;;;;4999121;28;20045;-74
2023/07/22 12:24:14;;;;;;;5.88;2.45;;;22.00;54.70;;;;;;4998576;28;20033;-75
2023/07/22 12:26:39;;;;;;;7.00;2.88;;;22.10;54.40;;;;;;4989259;28;20411;-75
2023/07/22 12:29:05;;;;;;;7.07;2.50;;;22.40;53.90;;;;;;4991082;28;20102;-75
2023/07/22 12:31:31;;;;;;;6.15;2.55;;;22.60;52.50;;;;;;4989570;28;20080;-74
2023/07/22 12:33:57;;;;;;;5.45;2.22;;;22.70;52.30;;;;;;5014337;28;20596;-74
2023/07/22 12:36:23;;;;;;;5.68;2.30;;;23.30;51.10;;;;;;4988507;28;20022;-74